createdAt,value
2022-12-12T00:00:35.930Z,100496.63
2022-12-12T00:01:46.471Z,100493.28
2022-12-12T00:02:48.837Z,100500.25
2022-12-12T00:03:53.023Z,100495.03
2022-12-12T00:04:58.101Z,100493.97
2022-12-12T00:06:05.044Z,100477.03
2022-12-12T00:07:07.533Z,100477.03
2022-12-12T00:08:11.402Z,100476.47
2022-12-12T00:09:14.042Z,100475.75
2022-12-12T00:10:17.385Z,100473.63
2022-12-12T00:11:20.038Z,100470.81
2022-12-12T00:12:23.465Z,100481.47
2022-12-12T00:13:25.743Z,100489.78
2022-12-12T00:14:28.921Z,100485.63
2022-12-12T00:15:31.190Z,100484.44
2022-12-12T00:16:34.583Z,100485.69
2022-12-12T00:17:36.786Z,100483.66
2022-12-12T00:18:40.754Z,100489.09
2022-12-12T00:19:44.671Z,100482.69
2022-12-12T00:20:51.865Z,100487.84
2022-12-12T00:21:55.126Z,100491.44
2022-12-12T00:22:57.344Z,100491.66
2022-12-12T00:24:00.732Z,100497.69
2022-12-12T00:25:02.951Z,100488.44
2022-12-12T00:26:08.691Z,100488.94
2022-12-12T00:27:11.049Z,100487.34
2022-12-12T00:28:14.627Z,100495.56
2022-12-12T00:29:17.983Z,100485.97
2022-12-12T00:30:20.386Z,100484.97
2022-12-12T00:31:23.898Z,100491.34
2022-12-12T00:32:26.560Z,100484.38
2022-12-12T00:33:29.835Z,100480.97
2022-12-12T00:34:32.078Z,100480.47
2022-12-12T00:35:35.310Z,100490.03
2022-12-12T00:36:40.388Z,100497.75
2022-12-12T00:37:42.812Z,100502.25
2022-12-12T00:38:46.591Z,100507.41
2022-12-12T00:39:49.363Z,100500.28
2022-12-12T00:40:58.426Z,100507.31
2022-12-12T00:42:01.791Z,100503.31
2022-12-12T00:43:04.089Z,100503.25
2022-12-12T00:44:07.661Z,100501.50
2022-12-12T00:45:11.154Z,100498.81
2022-12-12T00:46:17.056Z,100505.34
2022-12-12T00:47:19.306Z,100503.50
2022-12-12T00:48:22.895Z,100512.66
2022-12-12T00:49:25.410Z,100498.91
2022-12-12T00:50:28.984Z,100508.47
2022-12-12T00:51:31.321Z,100512.84
2022-12-12T00:52:35.964Z,100515.78
2022-12-12T00:53:39.504Z,100518.31
2022-12-12T00:54:42.888Z,100520.31
2022-12-12T00:55:45.270Z,100514.53
2022-12-12T00:56:48.568Z,100506.63
2022-12-12T00:57:51.155Z,100512.66
2022-12-12T00:58:54.773Z,100516.53
2022-12-12T00:59:59.601Z,100523.09
2022-12-12T01:01:06.621Z,100530.94
2022-12-12T01:02:09.955Z,100529.28
2022-12-12T01:03:12.175Z,100516.91
2022-12-12T01:04:15.719Z,100521.09
2022-12-12T01:05:18.612Z,100516.25
2022-12-12T01:06:22.397Z,100515.88
2022-12-12T01:07:24.918Z,100503.91
2022-12-12T01:08:29.722Z,100508.78
2022-12-12T01:09:33.883Z,100512.44
2022-12-12T01:10:36.326Z,100506.59
2022-12-12T01:11:39.898Z,100503.06
2022-12-12T01:12:42.624Z,100505.59
2022-12-12T01:13:47.119Z,100505.75
2022-12-12T01:14:49.315Z,100508.84
2022-12-12T01:15:52.711Z,100507.72
2022-12-12T01:16:55.030Z,100510.91
2022-12-12T01:17:58.386Z,100505.72
2022-12-12T01:19:01.297Z,100514.75
2022-12-12T01:20:06.084Z,100511.38
2022-12-12T01:21:09.649Z,100511.31
2022-12-12T01:22:13.225Z,100509.69
2022-12-12T01:23:16.341Z,100510.38
2022-12-12T01:24:20.983Z,100513.28
2022-12-12T01:25:23.872Z,100517.09
2022-12-12T01:26:27.149Z,100501.63
2022-12-12T01:27:29.399Z,100506.47
2022-12-12T01:28:32.943Z,100503.28
2022-12-12T01:29:35.771Z,100502.09
2022-12-12T01:30:39.357Z,100502.66
2022-12-12T01:31:42.881Z,100507.97
2022-12-12T01:32:45.511Z,100509.50
2022-12-12T01:33:49.236Z,100505.50
2022-12-12T01:34:51.685Z,100507.41
2022-12-12T01:35:56.622Z,100506.41
2022-12-12T01:36:58.867Z,100506.53
2022-12-12T01:38:02.239Z,100503.94
2022-12-12T01:39:05.833Z,100502.28
2022-12-12T01:40:17.396Z,100504.88
2022-12-12T01:41:21.295Z,100504.34
2022-12-12T01:42:24.705Z,100511.81
2022-12-12T01:43:30.734Z,100515.19
2022-12-12T01:44:45.814Z,100511.34
2022-12-12T01:46:36.929Z,100517.41
2022-12-12T01:47:39.260Z,100521.13
2022-12-12T01:48:47.162Z,100516.19
2022-12-12T01:49:54.993Z,100516.91
2022-12-12T01:51:00.220Z,100513.69
2022-12-12T01:52:07.142Z,100516.28
2022-12-12T01:53:10.019Z,100514.06
2022-12-12T01:54:18.366Z,100515.97
2022-12-12T01:55:24.904Z,100520.97
2022-12-12T01:56:27.548Z,100516.06
2022-12-12T01:57:35.786Z,100518.38
2022-12-12T01:58:39.809Z,100521.31
2022-12-12T01:59:44.037Z,100519.63
2022-12-12T02:00:46.641Z,100512.03
2022-12-12T02:01:50.688Z,100509.63
2022-12-12T02:02:55.947Z,100508.50
2022-12-12T02:04:00.720Z,100509.19
2022-12-12T02:05:12.454Z,100514.50
2022-12-12T02:06:20.019Z,100513.16
2022-12-12T02:07:22.388Z,100507.75
2022-12-12T02:08:27.049Z,100511.56
2022-12-12T02:09:30.631Z,100507.72
2022-12-12T02:10:34.455Z,100508.34
2022-12-12T02:11:43.367Z,100511.09
2022-12-12T02:12:46.245Z,100507.44
2022-12-12T02:13:50.610Z,100509.06
2022-12-12T02:14:55.045Z,100506.09
2022-12-12T02:16:08.110Z,100504.53
2022-12-12T02:18:03.688Z,100506.56
2022-12-12T02:19:32.949Z,100513.03
2022-12-12T02:20:52.406Z,100518.25
2022-12-12T02:22:02.391Z,100518.97
2022-12-12T02:23:38.789Z,100515.09
2022-12-12T02:25:02.244Z,100518.06
2022-12-12T02:26:32.332Z,100512.66
2022-12-12T02:27:56.518Z,100519.69
2022-12-12T02:29:27.896Z,100517.38
2022-12-12T02:30:43.378Z,100514.22
2022-12-12T02:31:52.856Z,100519.69
2022-12-12T02:33:32.023Z,100517.81
2022-12-12T02:34:39.718Z,100521.88
2022-12-12T02:35:54.527Z,100534.03
2022-12-12T02:37:08.103Z,100533.78
2022-12-12T02:38:21.365Z,100535.69
2022-12-12T02:39:32.191Z,100538.97
2022-12-12T02:40:39.038Z,100540.44
2022-12-12T02:41:45.578Z,100536.22
2022-12-12T02:42:54.931Z,100539.16
2022-12-12T02:44:09.539Z,100537.81
2022-12-12T02:45:17.843Z,100539.63
2022-12-12T02:46:29.771Z,100545.50
2022-12-12T02:47:37.852Z,100548.00
2022-12-12T02:48:49.271Z,100545.84
2022-12-12T02:49:55.525Z,100546.41
2022-12-12T02:51:02.058Z,100546.41
2022-12-12T02:52:05.699Z,100540.72
2022-12-12T02:53:09.196Z,100537.34
2022-12-12T02:54:15.628Z,100534.28
2022-12-12T02:55:19.824Z,100531.81
2022-12-12T02:56:45.976Z,100530.63
2022-12-12T02:57:51.262Z,100533.94
2022-12-12T02:58:53.676Z,100534.28
2022-12-12T02:59:59.059Z,100543.44
2022-12-12T03:01:23.282Z,100541.53
2022-12-12T03:02:52.616Z,100546.16
2022-12-12T03:04:18.467Z,100553.06
2022-12-12T03:05:53.486Z,100552.88
2022-12-12T03:07:23.060Z,100550.59
2022-12-12T03:08:42.225Z,100543.22
2022-12-12T03:09:59.885Z,100553.41
2022-12-12T03:11:07.453Z,100548.91
2022-12-12T03:12:16.969Z,100546.31
2022-12-12T03:13:30.216Z,100545.38
2022-12-12T03:14:42.826Z,100554.25
2022-12-12T03:15:58.200Z,100547.91
2022-12-12T03:17:07.807Z,100549.69
2022-12-12T03:18:24.086Z,100551.19
2022-12-12T03:19:30.443Z,100553.06
2022-12-12T03:20:41.849Z,100553.69
2022-12-12T03:21:49.430Z,100549.94
2022-12-12T03:22:56.884Z,100546.31
2022-12-12T03:24:05.062Z,100544.03
2022-12-12T03:25:15.324Z,100541.31
2022-12-12T03:26:25.427Z,100539.75
2022-12-12T03:27:33.482Z,100548.44
2022-12-12T03:28:40.844Z,100550.06
2022-12-12T03:29:47.899Z,100561.28
2022-12-12T03:30:55.687Z,100563.97
2022-12-12T03:32:06.497Z,100571.00
2022-12-12T03:33:17.927Z,100576.44
2022-12-12T03:34:26.095Z,100579.94
2022-12-12T03:35:34.407Z,100584.19
2022-12-12T03:36:42.270Z,100592.91
2022-12-12T03:37:52.692Z,100601.88
2022-12-12T03:38:59.675Z,100600.84
2022-12-12T03:40:06.807Z,100592.25
2022-12-12T03:41:15.363Z,100598.66
2022-12-12T03:42:24.659Z,100587.78
2022-12-12T03:43:29.883Z,100585.84
2022-12-12T03:44:41.430Z,100579.50
2022-12-12T03:45:52.864Z,100573.94
2022-12-12T03:47:02.011Z,100570.78
2022-12-12T03:48:09.852Z,100567.38
2022-12-12T03:49:19.436Z,100559.22
2022-12-12T03:50:23.495Z,100561.25
2022-12-12T03:51:30.454Z,100566.47
2022-12-12T03:52:38.690Z,100554.56
2022-12-12T03:53:45.327Z,100551.50
2022-12-12T03:54:52.139Z,100559.19
2022-12-12T03:55:59.223Z,100544.53
2022-12-12T03:57:06.730Z,100555.50
2022-12-12T03:58:15.778Z,100560.22
2022-12-12T03:59:27.365Z,100554.09
2022-12-12T04:00:37.344Z,100555.25
2022-12-12T04:01:44.702Z,100549.53
2022-12-12T04:02:52.770Z,100546.50
2022-12-12T04:04:00.840Z,100547.91
2022-12-12T04:05:36.693Z,100543.28
2022-12-12T04:07:04.957Z,100540.97
2022-12-12T04:08:12.181Z,100537.94
2022-12-12T04:09:34.588Z,100540.34
2022-12-12T04:11:10.300Z,100539.47
2022-12-12T04:12:37.188Z,100536.56
2022-12-12T04:13:50.487Z,100539.44
2022-12-12T04:15:13.482Z,100537.88
2022-12-12T04:16:22.443Z,100538.03
2022-12-12T04:17:33.128Z,100542.44
2022-12-12T04:18:41.474Z,100542.78
2022-12-12T04:20:12.018Z,100542.78
2022-12-12T04:21:48.867Z,100555.72
2022-12-12T04:23:15.698Z,100553.44
2022-12-12T04:24:27.704Z,100562.63
2022-12-12T04:25:57.803Z,100562.50
2022-12-12T04:27:06.519Z,100566.16
2022-12-12T04:28:08.807Z,100563.88
2022-12-12T04:29:33.823Z,100571.34
2022-12-12T04:30:37.394Z,100572.38
2022-12-12T04:31:46.427Z,100573.28
2022-12-12T04:32:53.995Z,100581.56
2022-12-12T04:34:02.662Z,100578.50
2022-12-12T04:35:11.515Z,100582.00
2022-12-12T04:36:17.221Z,100580.59
2022-12-12T04:37:25.164Z,100584.50
2022-12-12T04:38:27.453Z,100575.75
2022-12-12T04:39:31.860Z,100586.44
2022-12-12T04:40:38.144Z,100590.34
2022-12-12T04:41:44.904Z,100596.84
2022-12-12T04:42:55.639Z,100589.09
2022-12-12T04:44:00.343Z,100587.50
2022-12-12T04:45:08.836Z,100585.16
2022-12-12T04:46:15.589Z,100592.22
2022-12-12T04:47:20.367Z,100589.84
2022-12-12T04:48:28.642Z,100588.56
2022-12-12T04:49:34.663Z,100601.03
2022-12-12T04:50:38.780Z,100598.44
2022-12-12T04:51:45.245Z,100604.47
2022-12-12T04:52:55.643Z,100613.06
2022-12-12T04:54:02.963Z,100611.22
2022-12-12T04:55:12.396Z,100622.84
2022-12-12T04:56:20.468Z,100631.00
2022-12-12T04:57:29.035Z,100634.31
2022-12-12T04:58:31.543Z,100630.88
2022-12-12T04:59:35.487Z,100635.56
2022-12-12T05:00:45.902Z,100633.72
2022-12-12T05:01:55.445Z,100633.13
2022-12-12T05:03:04.517Z,100629.28
2022-12-12T05:04:15.665Z,100633.50
2022-12-12T05:05:22.145Z,100627.06
2022-12-12T05:06:31.605Z,100625.53
2022-12-12T05:07:40.376Z,100624.22
2022-12-12T05:08:47.272Z,100613.66
2022-12-12T05:09:50.405Z,100607.56
2022-12-12T05:10:56.960Z,100613.97
2022-12-12T05:11:59.357Z,100615.81
2022-12-12T05:13:02.860Z,100624.78
2022-12-12T05:14:08.679Z,100620.25
2022-12-12T05:15:12.590Z,100608.03
2022-12-12T05:16:19.980Z,100606.66
2022-12-12T05:17:28.991Z,100610.50
2022-12-12T05:18:31.536Z,100609.41
2022-12-12T05:19:34.857Z,100612.47
2022-12-12T05:20:37.099Z,100618.84
2022-12-12T05:21:40.412Z,100636.50
2022-12-12T05:22:42.809Z,100640.81
2022-12-12T05:23:47.946Z,100647.59
2022-12-12T05:24:50.956Z,100648.59
2022-12-12T05:25:54.208Z,100657.03
2022-12-12T05:26:56.563Z,100659.34
2022-12-12T05:27:59.764Z,100659.00
2022-12-12T05:29:07.212Z,100660.25
2022-12-12T05:30:12.765Z,100663.41
2022-12-12T05:31:15.143Z,100661.97
2022-12-12T05:32:18.365Z,100653.59
2022-12-12T05:33:20.796Z,100645.69
2022-12-12T05:34:24.016Z,100635.56
2022-12-12T05:35:27.558Z,100641.44
2022-12-12T05:36:29.700Z,100637.50
2022-12-12T05:37:32.903Z,100627.97
2022-12-12T05:38:35.538Z,100626.97
2022-12-12T05:39:40.337Z,100630.09
2022-12-12T05:40:43.036Z,100627.91
2022-12-12T05:41:46.382Z,100640.75
2022-12-12T05:42:48.563Z,100638.41
2022-12-12T05:43:52.348Z,100636.34
2022-12-12T05:44:54.768Z,100638.06
2022-12-12T05:45:58.753Z,100644.41
2022-12-12T05:47:01.114Z,100636.13
2022-12-12T05:48:04.577Z,100627.88
2022-12-12T05:49:08.063Z,100629.44
2022-12-12T05:50:10.416Z,100630.47
2022-12-12T05:51:13.884Z,100629.25
2022-12-12T05:52:17.260Z,100615.72
2022-12-12T05:53:19.697Z,100617.50
2022-12-12T05:54:23.368Z,100616.03
2022-12-12T05:55:26.911Z,100612.34
2022-12-12T05:56:30.396Z,100615.75
2022-12-12T05:57:32.763Z,100622.09
2022-12-12T05:58:36.154Z,100625.41
2022-12-12T05:59:39.631Z,100636.22
2022-12-12T06:00:41.850Z,100632.34
2022-12-12T06:01:45.338Z,100630.06
2022-12-12T06:02:47.937Z,100635.88
2022-12-12T06:03:51.391Z,100632.13
2022-12-12T06:04:53.742Z,100636.22
2022-12-12T06:05:57.277Z,100642.31
2022-12-12T06:06:59.999Z,100642.22
2022-12-12T06:08:03.551Z,100640.69
2022-12-12T06:09:06.792Z,100652.78
2022-12-12T06:10:09.530Z,100646.66
2022-12-12T06:11:14.333Z,100655.28
2022-12-12T06:12:17.813Z,100642.88
2022-12-12T06:13:21.060Z,100647.25
2022-12-12T06:14:24.452Z,100641.91
2022-12-12T06:15:26.636Z,100646.94
2022-12-12T06:16:29.882Z,100645.06
2022-12-12T06:17:33.477Z,100643.38
2022-12-12T06:18:37.685Z,100648.16
2022-12-12T06:19:39.948Z,100651.19
2022-12-12T06:20:43.538Z,100652.47
2022-12-12T06:21:45.843Z,100646.41
2022-12-12T06:22:53.446Z,100636.81
2022-12-12T06:23:57.504Z,100632.25
2022-12-12T06:24:59.748Z,100642.72
2022-12-12T06:26:03.466Z,100654.34
2022-12-12T06:27:07.880Z,100660.84
2022-12-12T06:28:11.462Z,100654.31
2022-12-12T06:29:15.000Z,100663.78
2022-12-12T06:30:17.492Z,100655.88
2022-12-12T06:31:20.952Z,100657.47
2022-12-12T06:32:23.321Z,100659.22
2022-12-12T06:33:27.682Z,100661.44
2022-12-12T06:34:30.995Z,100661.03
2022-12-12T06:35:34.179Z,100659.06
2022-12-12T06:36:37.419Z,100652.16
2022-12-12T06:37:41.208Z,100647.16
2022-12-12T06:38:43.514Z,100645.06
2022-12-12T06:39:47.043Z,100647.28
2022-12-12T06:40:49.351Z,100655.69
2022-12-12T06:41:52.680Z,100658.84
2022-12-12T06:42:56.337Z,100657.38
2022-12-12T06:43:59.874Z,100649.09
2022-12-12T06:45:02.224Z,100652.13
2022-12-12T06:46:07.358Z,100649.88
2022-12-12T06:47:10.839Z,100640.91
2022-12-12T06:48:13.175Z,100631.53
2022-12-12T06:49:17.106Z,100635.50
2022-12-12T06:50:23.875Z,100642.31
2022-12-12T06:51:29.351Z,100635.41
2022-12-12T06:52:32.765Z,100643.53
2022-12-12T06:53:35.238Z,100635.78
2022-12-12T06:54:38.556Z,100638.97
2022-12-12T06:55:45.485Z,100659.81
2022-12-12T06:56:48.947Z,100659.84
2022-12-12T06:57:51.467Z,100666.44
2022-12-12T06:58:56.931Z,100666.66
2022-12-12T07:00:00.209Z,100677.81
2022-12-12T07:01:02.839Z,100672.47
2022-12-12T07:02:07.223Z,100675.03
2022-12-12T07:03:13.625Z,100687.09
2022-12-12T07:04:17.479Z,100688.09
2022-12-12T07:05:21.531Z,100687.25
2022-12-12T07:06:24.718Z,100687.84
2022-12-12T07:07:28.188Z,100674.69
2022-12-12T07:08:30.486Z,100676.25
2022-12-12T07:09:34.016Z,100670.66
2022-12-12T07:10:37.116Z,100671.78
2022-12-12T07:11:41.178Z,100663.78
2022-12-12T07:12:47.713Z,100670.47
2022-12-12T07:13:50.917Z,100659.91
2022-12-12T07:14:55.768Z,100668.38
2022-12-12T07:15:58.305Z,100667.72
2022-12-12T07:17:01.793Z,100669.22
2022-12-12T07:18:04.301Z,100660.94
2022-12-12T07:19:07.943Z,100655.53
2022-12-12T07:20:10.443Z,100660.44
2022-12-12T07:21:17.290Z,100664.63
2022-12-12T07:22:20.524Z,100652.41
2022-12-12T07:23:22.982Z,100657.25
2022-12-12T07:24:26.205Z,100650.41
2022-12-12T07:25:28.580Z,100647.47
2022-12-12T07:26:31.909Z,100653.00
2022-12-12T07:27:35.562Z,100654.25
2022-12-12T07:28:38.265Z,100656.44
2022-12-12T07:29:41.847Z,100646.22
2022-12-12T07:30:48.340Z,100646.94
2022-12-12T07:31:51.812Z,100650.16
2022-12-12T07:32:55.087Z,100654.81
2022-12-12T07:33:58.299Z,100657.84
2022-12-12T07:35:00.868Z,100667.03
2022-12-12T07:36:04.583Z,100673.31
2022-12-12T07:37:07.892Z,100678.53
2022-12-12T07:38:12.376Z,100684.31
2022-12-12T07:39:20.409Z,100680.97
2022-12-12T07:40:23.142Z,100690.78
2022-12-12T07:41:26.525Z,100688.25
2022-12-12T07:42:29.840Z,100696.75
2022-12-12T07:43:33.118Z,100706.91
2022-12-12T07:44:36.864Z,100706.69
2022-12-12T07:45:39.081Z,100703.91
2022-12-12T07:46:44.242Z,100703.25
2022-12-12T07:47:48.294Z,100696.78
2022-12-12T07:48:50.994Z,100693.28
2022-12-12T07:49:54.716Z,100698.75
2022-12-12T07:51:00.315Z,100697.16
2022-12-12T07:52:03.887Z,100697.88
2022-12-12T07:53:07.753Z,100691.50
2022-12-12T07:54:11.043Z,100699.94
2022-12-12T07:55:13.571Z,100695.31
2022-12-12T07:56:18.238Z,100698.13
2022-12-12T07:57:21.698Z,100699.50
2022-12-12T07:58:25.211Z,100694.75
2022-12-12T07:59:28.715Z,100692.06
2022-12-12T08:00:31.086Z,100697.41
2022-12-12T08:01:34.519Z,100694.50
2022-12-12T08:02:38.265Z,100700.06
2022-12-12T08:03:42.306Z,100713.94
2022-12-12T08:04:44.800Z,100699.53
2022-12-12T08:05:48.452Z,100689.91
2022-12-12T08:06:57.631Z,100688.44
2022-12-12T08:08:04.725Z,100685.09
2022-12-12T08:09:08.692Z,100685.47
2022-12-12T08:10:11.108Z,100690.47
2022-12-12T08:11:17.257Z,100701.16
2022-12-12T08:12:20.815Z,100701.94
2022-12-12T08:13:24.213Z,100705.59
2022-12-12T08:14:28.069Z,100703.63
2022-12-12T08:15:30.255Z,100707.97
2022-12-12T08:16:33.650Z,100714.53
2022-12-12T08:17:37.511Z,100713.78
2022-12-12T08:18:41.251Z,100703.56
2022-12-12T08:19:45.115Z,100708.50
2022-12-12T08:20:48.378Z,100707.28
2022-12-12T08:21:52.005Z,100705.44
2022-12-12T08:22:55.572Z,100701.81
2022-12-12T08:23:59.707Z,100704.88
2022-12-12T08:25:02.362Z,100707.72
2022-12-12T08:26:07.116Z,100706.59
2022-12-12T08:27:15.555Z,100708.41
2022-12-12T08:28:19.924Z,100698.44
2022-12-12T08:29:23.224Z,100705.69
2022-12-12T08:30:26.559Z,100699.00
2022-12-12T08:31:30.330Z,100706.25
2022-12-12T08:32:33.135Z,100697.34
2022-12-12T08:33:38.292Z,100696.03
2022-12-12T08:34:41.891Z,100698.88
2022-12-12T08:35:44.167Z,100703.97
2022-12-12T08:36:48.021Z,100700.84
2022-12-12T08:37:51.355Z,100705.88
2022-12-12T08:38:53.540Z,100710.56
2022-12-12T08:39:56.811Z,100707.03
2022-12-12T08:41:03.495Z,100699.56
2022-12-12T08:42:07.041Z,100709.47
2022-12-12T08:43:09.613Z,100713.50
2022-12-12T08:44:13.931Z,100713.53
2022-12-12T08:45:16.999Z,100712.63
2022-12-12T08:46:21.559Z,100710.38
2022-12-12T08:47:24.033Z,100718.53
2022-12-12T08:48:27.357Z,100719.47
2022-12-12T08:49:32.640Z,100713.06
2022-12-12T08:50:35.958Z,100715.47
2022-12-12T08:51:39.728Z,100715.34
2022-12-12T08:52:42.996Z,100708.56
2022-12-12T08:53:46.877Z,100713.72
2022-12-12T08:54:50.173Z,100718.28
2022-12-12T08:55:53.735Z,100720.91
2022-12-12T08:56:56.918Z,100719.75
2022-12-12T08:57:59.105Z,100721.13
2022-12-12T08:59:02.478Z,100712.34
2022-12-12T09:00:06.981Z,100717.91
2022-12-12T09:01:12.297Z,100711.59
2022-12-12T09:02:16.101Z,100720.91
2022-12-12T09:03:23.532Z,100717.97
2022-12-12T09:04:32.236Z,100726.34
2022-12-12T09:05:36.347Z,100711.22
2022-12-12T09:06:38.764Z,100721.88
2022-12-12T09:07:42.034Z,100716.38
2022-12-12T09:08:45.747Z,100719.63
2022-12-12T09:09:47.971Z,100721.22
2022-12-12T09:10:51.956Z,100721.69
2022-12-12T09:11:55.518Z,100732.00
2022-12-12T09:12:59.411Z,100727.41
2022-12-12T09:14:03.431Z,100720.38
2022-12-12T09:15:09.100Z,100712.09
2022-12-12T09:16:12.130Z,100697.34
2022-12-12T09:17:15.596Z,100696.19
2022-12-12T09:18:18.975Z,100697.50
2022-12-12T09:19:22.216Z,100697.34
2022-12-12T09:20:27.157Z,100697.22
2022-12-12T09:21:30.453Z,100694.81
2022-12-12T09:22:33.158Z,100688.66
2022-12-12T09:23:36.508Z,100694.81
2022-12-12T09:24:38.703Z,100701.84
2022-12-12T09:25:42.785Z,100705.41
2022-12-12T09:26:46.492Z,100711.19
2022-12-12T09:27:49.945Z,100715.59
2022-12-12T09:28:53.294Z,100720.22
2022-12-12T09:29:57.124Z,100719.44
2022-12-12T09:31:00.549Z,100724.84
2022-12-12T09:32:06.609Z,100723.94
2022-12-12T09:33:10.335Z,100726.19
2022-12-12T09:34:13.900Z,100718.38
2022-12-12T09:35:17.315Z,100734.75
2022-12-12T09:36:21.947Z,100731.06
2022-12-12T09:37:25.340Z,100729.84
2022-12-12T09:38:29.151Z,100724.16
2022-12-12T09:39:33.139Z,100734.25
2022-12-12T09:40:41.434Z,100734.88
2022-12-12T09:41:44.884Z,100742.97
2022-12-12T09:42:49.494Z,100743.78
2022-12-12T09:43:58.954Z,100746.25
2022-12-12T09:45:06.751Z,100747.47
2022-12-12T09:46:17.176Z,100762.88
2022-12-12T09:47:31.351Z,100762.66
2022-12-12T09:48:42.066Z,100771.28
2022-12-12T09:49:49.658Z,100783.00
2022-12-12T09:50:53.236Z,100786.59
2022-12-12T09:52:00.277Z,100793.97
2022-12-12T09:53:06.482Z,100797.69
2022-12-12T09:54:14.932Z,100797.53
2022-12-12T09:55:31.600Z,100807.53
2022-12-12T09:56:43.950Z,100807.63
2022-12-12T09:57:58.491Z,100810.88
2022-12-12T09:59:08.072Z,100812.81
2022-12-12T10:00:14.503Z,100812.19
2022-12-12T10:01:26.989Z,100809.16
2022-12-12T10:02:43.258Z,100816.69
2022-12-12T10:03:57.553Z,100812.28
2022-12-12T10:05:04.252Z,100804.66
2022-12-12T10:07:43.435Z,100823.44
2022-12-12T10:08:55.556Z,100832.44
2022-12-12T10:10:04.657Z,100825.13
2022-12-12T10:11:32.199Z,100816.75
2022-12-12T10:12:36.102Z,100814.81
2022-12-12T10:13:39.300Z,100811.34
2022-12-12T10:14:46.597Z,100819.63
2022-12-12T10:15:53.632Z,100810.66
2022-12-12T10:16:58.726Z,100810.75
2022-12-12T10:18:06.605Z,100797.41
2022-12-12T10:19:14.627Z,100790.59
2022-12-12T10:20:23.274Z,100788.78
2022-12-12T10:21:30.312Z,100783.56
2022-12-12T10:22:39.382Z,100798.22
2022-12-12T10:23:47.034Z,100791.06
2022-12-12T10:24:54.785Z,100788.22
2022-12-12T10:26:00.857Z,100787.31
2022-12-12T10:27:11.200Z,100772.38
2022-12-12T10:28:17.212Z,100770.28
2022-12-12T10:29:22.587Z,100765.09
2022-12-12T10:30:26.087Z,100756.75
2022-12-12T10:31:41.932Z,100765.72
2022-12-12T10:33:01.407Z,100764.97
2022-12-12T10:34:20.652Z,100765.53
2022-12-12T10:35:30.752Z,100754.97
2022-12-12T10:36:49.631Z,100737.03
2022-12-12T10:38:03.692Z,100736.16
2022-12-12T10:39:16.627Z,100735.00
2022-12-12T10:40:35.348Z,100742.97
2022-12-12T10:41:49.027Z,100729.59
2022-12-12T10:42:56.712Z,100716.03
2022-12-12T10:44:10.876Z,100717.09
2022-12-12T10:45:32.297Z,100714.66
2022-12-12T10:46:41.415Z,100715.25
2022-12-12T10:47:43.936Z,100711.97
2022-12-12T10:48:49.371Z,100706.41
2022-12-12T10:49:58.073Z,100712.56
2022-12-12T10:51:05.562Z,100711.53
2022-12-12T10:52:17.704Z,100709.63
2022-12-12T10:53:23.443Z,100708.13
2022-12-12T10:54:28.883Z,100714.94
2022-12-12T10:55:40.608Z,100719.78
2022-12-12T10:57:06.299Z,100722.00
2022-12-12T10:58:09.552Z,100718.59
2022-12-12T10:59:22.275Z,100718.13
2022-12-12T11:00:35.445Z,100718.81
2022-12-12T11:03:14.245Z,100711.47
2022-12-12T11:04:17.056Z,100706.09
2022-12-12T11:05:23.696Z,100705.44
2022-12-12T11:06:32.548Z,100709.47
2022-12-12T11:07:38.254Z,100695.22
2022-12-12T11:08:54.334Z,100694.97
2022-12-12T11:10:01.929Z,100687.03
2022-12-12T11:11:09.327Z,100687.75
2022-12-12T11:12:16.022Z,100685.97
2022-12-12T11:13:18.169Z,100687.16
2022-12-12T11:14:28.604Z,100679.81
2022-12-12T11:15:40.954Z,100683.88
2022-12-12T11:16:45.408Z,100675.44
2022-12-12T11:17:50.378Z,100677.50
2022-12-12T11:19:02.557Z,100676.88
2022-12-12T11:20:09.974Z,100682.69
2022-12-12T11:21:15.236Z,100673.09
2022-12-12T11:22:18.708Z,100673.47
2022-12-12T11:23:26.551Z,100682.28
2022-12-12T11:24:34.240Z,100681.06
2022-12-12T11:25:38.065Z,100667.84
2022-12-12T11:26:46.654Z,100658.38
2022-12-12T11:27:49.991Z,100652.16
2022-12-12T11:28:56.892Z,100658.69
2022-12-12T11:30:03.199Z,100653.69
2022-12-12T11:31:09.901Z,100659.94
2022-12-12T11:32:15.980Z,100649.34
2022-12-12T11:33:22.778Z,100644.44
2022-12-12T11:34:29.032Z,100636.63
2022-12-12T11:35:38.197Z,100637.09
2022-12-12T11:36:43.851Z,100630.66
2022-12-12T11:37:49.881Z,100620.09
2022-12-12T11:38:56.039Z,100623.25
2022-12-12T11:40:00.744Z,100636.47
2022-12-12T11:41:06.370Z,100635.16
2022-12-12T11:42:21.297Z,100627.00
2022-12-12T11:43:26.722Z,100625.31
2022-12-12T11:44:35.341Z,100625.97
2022-12-12T11:45:38.581Z,100634.41
2022-12-12T11:46:42.067Z,100629.03
2022-12-12T11:47:47.291Z,100625.09
2022-12-12T11:48:59.311Z,100623.88
2022-12-12T11:50:07.702Z,100614.94
2022-12-12T11:51:14.461Z,100611.00
2022-12-12T11:52:19.775Z,100608.44
2022-12-12T11:53:23.067Z,100596.88
2022-12-12T11:54:31.715Z,100587.09
2022-12-12T11:55:46.441Z,100589.00
2022-12-12T11:56:55.574Z,100581.69
2022-12-12T11:58:11.056Z,100579.84
2022-12-12T11:59:47.003Z,100580.16
2022-12-12T12:00:58.630Z,100571.19
2022-12-12T12:02:25.655Z,100559.81
2022-12-12T12:03:34.303Z,100564.19
2022-12-12T12:04:53.794Z,100557.06
2022-12-12T12:06:14.735Z,100559.44
2022-12-12T12:07:34.487Z,100557.00
2022-12-12T12:08:48.601Z,100551.28
2022-12-12T12:10:02.840Z,100546.38
2022-12-12T12:11:17.911Z,100535.59
2022-12-12T12:12:29.406Z,100539.97
2022-12-12T12:13:48.243Z,100533.06
2022-12-12T12:15:08.488Z,100526.66
2022-12-12T12:16:21.306Z,100515.91
2022-12-12T12:17:36.630Z,100508.91
2022-12-12T12:18:56.242Z,100512.31
2022-12-12T12:20:08.329Z,100500.59
2022-12-12T12:21:29.091Z,100488.88
2022-12-12T12:22:43.533Z,100475.16
2022-12-12T12:24:00.439Z,100475.41
2022-12-12T12:25:21.187Z,100480.84
2022-12-12T12:26:35.862Z,100474.59
2022-12-12T12:27:47.224Z,100479.44
2022-12-12T12:29:27.502Z,100474.13
2022-12-12T12:30:37.689Z,100468.81
2022-12-12T12:31:48.364Z,100459.81
2022-12-12T12:33:24.250Z,100452.63
2022-12-12T12:34:37.005Z,100458.91
2022-12-12T12:35:53.280Z,100454.22
2022-12-12T12:37:15.164Z,100460.69
2022-12-12T12:38:26.917Z,100452.34
2022-12-12T12:39:45.699Z,100441.44
2022-12-12T12:41:07.333Z,100433.66
2022-12-12T12:42:26.319Z,100430.25
2022-12-12T12:43:45.432Z,100435.84
2022-12-12T12:44:52.635Z,100419.34
2022-12-12T12:46:02.554Z,100430.84
2022-12-12T12:47:21.464Z,100428.31
2022-12-12T12:48:30.243Z,100420.56
2022-12-12T12:49:39.997Z,100408.56
2022-12-12T12:50:46.820Z,100410.16
2022-12-12T12:51:54.907Z,100395.72